Time;durP1;ratioP1;P1;durP2;ratioP2;P2;SDS_P1;SDS_P2;PMS_P1;PMS_P2;Temp;Humidity;BMP_temperature;BMP_pressure;BME280_temperature;BME280_humidity;BME280_pressure;Samples;Min_cycle;Max_cycle;Signal;HPM_P1;HPM_P2
2023/01/12 00:01:38;;;;;;;15.13;3.00;;;9.50;99.90;;;;;;5041391;28;20034;-77
2023/01/12 00:04:04;;;;;;;21.02;3.28;;;9.50;99.90;;;;;;5044397;28;20485;-75
2023/01/12 00:06:33;;;;;;;17.27;3.30;;;9.60;99.90;;;;;;5055186;28;20033;-76
2023/01/12 00:09:01;;;;;;;29.20;3.65;;;9.60;99.90;;;;;;5040434;28;20087;-76
2023/01/12 00:11:27;;;;;;;33.58;4.10;;;9.60;99.90;;;;;;5055222;28;20060;-76
2023/01/12 00:13:53;;;;;;;37.60;6.28;;;9.60;99.90;;;;;;5054662;28;20025;-76
2023/01/12 00:16:34;;;;;;;29.77;4.18;;;9.60;99.90;;;;;;5040020;28;20033;-77
2023/01/12 00:19:19;;;;;;;;;;;9.70;99.90;;;;;;5046037;28;20021;-76
2023/01/12 00:22:11;;;;;;;35.60;5.22;;;9.60;99.90;;;;;;5053044;28;19911;-77
2023/01/12 00:24:39;;;;;;;29.92;5.35;;;9.60;99.90;;;;;;5054584;28;20036;-76
2023/01/12 00:27:07;;;;;;;33.88;4.72;;;9.60;99.90;;;;;;5041640;28;20070;-77
2023/01/12 00:29:37;;;;;;;36.88;5.80;;;9.70;99.90;;;;;;5055070;28;20029;-76
2023/01/12 00:32:04;;;;;;;37.60;5.78;;;9.60;99.90;;;;;;5054826;28;20033;-76
2023/01/12 00:34:30;;;;;;;34.25;4.55;;;9.60;99.90;;;;;;5056117;28;20033;-76
2023/01/12 00:36:56;;;;;;;34.00;4.70;;;9.70;99.90;;;;;;5052733;28;20029;-76
2023/01/12 00:39:22;;;;;;;24.35;4.28;;;9.60;99.90;;;;;;5053895;28;20500;-78
2023/01/12 00:47:16;;;;;;;27.27;4.50;;;9.60;99.90;;;;;;5053792;28;20058;-76
2023/01/12 00:49:42;;;;;;;26.20;4.30;;;9.60;99.90;;;;;;5054139;28;20369;-77
2023/01/12 00:52:11;;;;;;;24.42;3.67;;;9.60;99.90;;;;;;5053210;28;20021;-76
2023/01/12 00:54:36;;;;;;;22.50;5.38;;;9.50;99.90;;;;;;5052651;28;20028;-76
2023/01/12 00:57:02;;;;;;;30.23;4.68;;;9.50;99.90;;;;;;5054113;28;20033;-77
2023/01/12 00:59:28;;;;;;;27.17;5.65;;;9.50;99.90;;;;;;5053752;28;20609;-76
2023/01/12 01:01:54;;;;;;;24.35;5.38;;;9.50;99.90;;;;;;5054317;28;20048;-76
2023/01/12 01:04:20;;;;;;;33.45;5.38;;;9.50;99.90;;;;;;5054501;28;20021;-75
2023/01/12 01:06:45;;;;;;;28.77;4.95;;;9.50;99.90;;;;;;5053897;28;20499;-77
2023/01/12 01:09:11;;;;;;;38.95;5.72;;;9.50;99.90;;;;;;5054196;28;20071;-76
2023/01/12 01:11:37;;;;;;;33.00;4.90;;;9.50;99.90;;;;;;5052984;28;20430;-77
2023/01/12 01:14:03;;;;;;;33.53;6.40;;;9.50;99.90;;;;;;5038754;28;20024;-76
2023/01/12 01:16:29;;;;;;;29.95;5.57;;;9.50;99.90;;;;;;5038944;28;20104;-77
2023/01/12 01:18:56;;;;;;;23.65;5.15;;;9.50;99.90;;;;;;5052053;28;20032;-77
2023/01/12 01:21:22;;;;;;;22.73;3.90;;;9.50;99.90;;;;;;5052966;28;20409;-75
2023/01/12 01:23:48;;;;;;;32.13;5.75;;;9.60;99.90;;;;;;5053107;28;20025;-77
2023/01/12 01:26:17;;;;;;;30.40;6.05;;;9.60;99.90;;;;;;5052098;28;20196;-75
2023/01/12 01:28:43;;;;;;;30.80;5.53;;;9.60;99.90;;;;;;5053344;28;20021;-77
2023/01/12 01:31:10;;;;;;;29.60;4.78;;;9.60;99.90;;;;;;5052718;28;20405;-76
2023/01/12 01:33:36;;;;;;;17.50;3.75;;;9.70;99.90;;;;;;5051872;28;20025;-76
2023/01/12 01:36:01;;;;;;;16.65;4.50;;;9.60;99.90;;;;;;5053114;28;20024;-75
2023/01/12 01:38:27;;;;;;;16.45;3.40;;;9.70;99.90;;;;;;5052634;28;20471;-77
2023/01/12 01:40:53;;;;;;;19.55;3.08;;;9.70;99.90;;;;;;5051742;28;20033;-76
2023/01/12 01:43:20;;;;;;;8.35;2.45;;;9.70;99.90;;;;;;5052841;28;20021;-74
2023/01/12 01:45:55;;;;;;;19.20;3.40;;;9.70;99.90;;;;;;5052564;28;20032;-77
2023/01/12 01:48:23;;;;;;;18.77;3.30;;;9.70;99.90;;;;;;5052123;28;20032;-77
2023/01/12 01:50:56;;;;;;;20.90;2.20;;;9.70;99.90;;;;;;5052650;28;20025;-78
2023/01/12 01:53:24;;;;;;;13.88;2.80;;;9.60;99.90;;;;;;5052606;28;20473;-77
2023/01/12 01:55:53;;;;;;;16.63;2.97;;;9.70;99.90;;;;;;5051801;28;20068;-75
2023/01/12 01:58:25;;;;;;;11.80;2.42;;;9.60;99.90;;;;;;5052791;28;20025;-78
2023/01/12 02:00:52;;;;;;;7.32;2.05;;;9.60;99.90;;;;;;5051261;28;20021;-76
2023/01/12 02:03:18;;;;;;;10.38;2.17;;;9.60;99.90;;;;;;5052450;28;20040;-76
2023/01/12 02:05:47;;;;;;;9.32;1.88;;;9.60;99.90;;;;;;5035495;28;20316;-76
2023/01/12 02:08:51;;;;;;;12.40;2.35;;;9.60;99.90;;;;;;5040563;28;20024;-77
2023/01/12 02:17:11;;;;;;;10.95;1.92;;;9.60;99.90;;;;;;5037594;28;20073;-77
2023/01/12 02:19:54;;;;;;;4.18;1.70;;;9.60;99.90;;;;;;5052103;28;20029;-77
2023/01/12 02:22:47;;;;;;;11.27;2.40;;;9.60;99.90;;;;;;5051649;28;20104;-75
2023/01/12 02:25:58;;;;;;;10.70;2.00;;;9.60;99.90;;;;;;5051628;28;20039;-77
2023/01/12 02:28:45;;;;;;;13.07;2.42;;;9.60;99.90;;;;;;5050581;28;20389;-78
2023/01/12 02:31:30;;;;;;;13.77;2.65;;;9.60;99.90;;;;;;5050823;28;20494;-76
2023/01/12 02:34:14;;;;;;;12.23;2.15;;;9.60;99.90;;;;;;5051702;28;20361;-77
2023/01/12 02:36:54;;;;;;;12.50;2.60;;;9.60;99.90;;;;;;5051752;28;20041;-77
2023/01/12 02:39:25;;;;;;;15.02;2.75;;;9.70;99.90;;;;;;5052768;28;20138;-76
2023/01/12 02:45:16;;;;;;;15.55;2.67;;;9.70;99.90;;;;;;5051322;28;20071;-78
2023/01/12 02:47:56;;;;;;;13.88;3.17;;;9.80;99.90;;;;;;5051971;28;20033;-77
2023/01/12 02:50:52;;;;;;;15.07;3.47;;;9.80;99.90;;;;;;5050912;28;20025;-77
2023/01/12 02:53:32;;;;;;;21.92;4.40;;;9.70;99.90;;;;;;5052374;28;20465;-76
2023/01/12 02:56:01;;;;;;;17.48;3.78;;;9.80;99.90;;;;;;5052697;28;20476;-76
2023/01/12 02:58:29;;;;;;;24.88;3.15;;;9.70;99.90;;;;;;5052663;28;20032;-77
2023/01/12 03:00:59;;;;;;;16.17;2.88;;;9.70;99.90;;;;;;5052891;28;20114;-76
2023/01/12 03:03:25;;;;;;;11.52;2.80;;;9.70;99.90;;;;;;5053456;28;20035;-77
2023/01/12 03:06:03;;;;;;;13.48;3.28;;;9.70;99.90;;;;;;5051484;28;20033;-77
2023/01/12 03:08:31;;;;;;;17.58;4.20;;;9.70;99.90;;;;;;5052522;28;20055;-77
2023/01/12 03:11:15;;;;;;;19.25;4.10;;;9.70;99.90;;;;;;5052706;28;20028;-76
2023/01/12 03:13:55;;;;;;;11.15;3.47;;;9.60;99.90;;;;;;5051947;28;20025;-76
2023/01/12 03:16:25;;;;;;;10.02;3.20;;;9.70;99.90;;;;;;5038297;28;20593;-76
2023/01/12 03:19:00;;;;;;;13.10;4.05;;;9.60;99.90;;;;;;5054356;28;20548;-75
2023/01/12 03:21:34;;;;;;;13.50;3.58;;;9.60;99.90;;;;;;5055355;28;20037;-77
2023/01/12 03:24:09;;;;;;;11.10;3.10;;;9.60;99.90;;;;;;5055047;28;20029;-76
2023/01/12 03:26:38;;;;;;;5.40;2.63;;;9.60;99.90;;;;;;5054711;28;20037;-76
2023/01/12 03:29:10;;;;;;;8.95;2.92;;;9.50;99.90;;;;;;5055608;28;20068;-76
2023/01/12 03:31:36;;;;;;;12.73;2.42;;;9.50;99.90;;;;;;5055569;28;20045;-77
2023/01/12 03:34:02;;;;;;;9.70;2.55;;;9.50;99.90;;;;;;5054442;28;20044;-78
2023/01/12 03:36:48;;;;;;;8.60;2.35;;;9.50;99.90;;;;;;5038018;28;20029;-77
2023/01/12 03:39:22;;;;;;;7.03;2.05;;;9.50;99.90;;;;;;5040770;28;20070;-77
2023/01/12 03:42:26;;;;;;;6.13;1.95;;;9.50;99.90;;;;;;5046383;28;20043;-77
2023/01/12 03:45:19;;;;;;;8.30;1.70;;;9.40;99.90;;;;;;5034747;28;20041;-77
2023/01/12 03:47:50;;;;;;;6.80;1.88;;;9.40;99.90;;;;;;5041095;28;20028;-76
2023/01/12 03:50:26;;;;;;;5.85;1.67;;;9.40;99.90;;;;;;5054911;28;20082;-76
2023/01/12 03:52:54;;;;;;;6.93;1.80;;;9.40;99.90;;;;;;5048290;28;20018;-76
2023/01/12 03:55:22;;;;;;;9.05;2.58;;;9.40;99.90;;;;;;5047331;28;20021;-77
2023/01/12 03:57:49;;;;;;;8.93;1.92;;;9.40;99.90;;;;;;5056046;28;20059;-77
2023/01/12 04:00:18;;;;;;;5.50;1.85;;;9.40;99.90;;;;;;5055658;28;20108;-77
2023/01/12 04:02:44;;;;;;;5.78;1.60;;;9.40;99.90;;;;;;5054012;28;20029;-77
2023/01/12 04:05:13;;;;;;;16.45;3.13;;;9.40;99.90;;;;;;5053920;28;20032;-77
2023/01/12 04:07:39;;;;;;;9.02;2.20;;;9.40;99.90;;;;;;5053610;28;20036;-76
2023/01/12 04:10:05;;;;;;;6.68;1.63;;;9.40;99.90;;;;;;5046181;28;20013;-76
2023/01/12 04:12:31;;;;;;;10.18;2.55;;;9.40;99.90;;;;;;5047990;28;20116;-76
2023/01/12 04:14:56;;;;;;;10.68;3.05;;;9.40;99.90;;;;;;5053075;28;20096;-75
2023/01/12 04:17:24;;;;;;;8.30;2.00;;;9.40;99.90;;;;;;5054648;28;20480;-76
2023/01/12 04:19:50;;;;;;;10.75;2.38;;;9.40;99.90;;;;;;5053993;28;20021;-77
2023/01/12 04:25:01;;;;;;;7.25;2.03;;;9.50;99.90;;;;;;5053722;28;20063;-76
2023/01/12 04:27:27;;;;;;;11.52;2.15;;;9.50;99.90;;;;;;5053863;28;20024;-76
2023/01/12 04:29:53;;;;;;;12.60;3.08;;;9.50;99.90;;;;;;5053205;28;20186;-76
2023/01/12 04:32:19;;;;;;;5.35;1.38;;;9.50;99.90;;;;;;5053720;28;20083;-76
2023/01/12 04:34:45;;;;;;;10.68;1.85;;;9.50;99.90;;;;;;5053529;28;20485;-76
2023/01/12 04:37:11;;;;;;;9.57;1.60;;;9.50;99.90;;;;;;5053912;28;20499;-77
2023/01/12 04:39:37;;;;;;;5.45;1.70;;;9.50;99.90;;;;;;5054386;28;20025;-77
2023/01/12 04:42:03;;;;;;;9.70;1.83;;;9.50;99.90;;;;;;5053914;28;20077;-76
2023/01/12 04:44:28;;;;;;;9.45;1.73;;;9.50;99.90;;;;;;5043991;28;20671;-77
2023/01/12 04:46:54;;;;;;;3.58;1.15;;;9.50;99.90;;;;;;5049962;28;20112;-77
2023/01/12 04:49:19;;;;;;;4.18;1.40;;;9.50;99.90;;;;;;5054474;28;20100;-76
2023/01/12 04:51:45;;;;;;;7.55;2.13;;;9.50;99.90;;;;;;5053863;28;20079;-77
2023/01/12 04:54:11;;;;;;;10.60;1.38;;;9.50;99.90;;;;;;5054171;28;20440;-76
2023/01/12 04:56:37;;;;;;;4.75;0.85;;;9.60;99.90;;;;;;5053631;28;20143;-77
2023/01/12 04:59:02;;;;;;;7.43;1.73;;;9.50;99.90;;;;;;5053128;28;20092;-77
2023/01/12 05:01:29;;;;;;;4.15;1.33;;;9.50;99.90;;;;;;5054374;28;20036;-76
2023/01/12 05:03:56;;;;;;;3.72;1.63;;;9.60;99.90;;;;;;5052622;28;20025;-76
2023/01/12 05:06:23;;;;;;;2.80;1.10;;;9.50;99.90;;;;;;5054036;28;20040;-75
2023/01/12 05:11:33;;;;;;;7.82;1.45;;;9.60;99.90;;;;;;5053438;28;20040;-76
2023/01/12 05:13:59;;;;;;;9.63;1.70;;;9.50;99.90;;;;;;5053173;28;20029;-76
2023/01/12 05:16:29;;;;;;;5.28;1.35;;;9.50;99.90;;;;;;5054001;28;20028;-76
2023/01/12 05:18:54;;;;;;;4.55;1.33;;;9.50;99.90;;;;;;5052517;28;20560;-76
2023/01/12 05:21:22;;;;;;;1.17;0.90;;;9.60;99.90;;;;;;5053324;28;20108;-76
2023/01/12 05:23:49;;;;;;;3.67;1.10;;;9.50;99.90;;;;;;5053656;28;20052;-76
2023/01/12 05:26:14;;;;;;;2.85;1.30;;;9.50;99.90;;;;;;5047150;28;20037;-77
2023/01/12 05:28:40;;;;;;;8.52;2.22;;;9.50;99.90;;;;;;5033306;28;20078;-75
2023/01/12 05:31:12;;;;;;;4.40;0.77;;;9.50;99.90;;;;;;5032443;28;20042;-76
2023/01/12 05:33:40;;;;;;;5.78;1.17;;;9.50;99.90;;;;;;5031065;28;20485;-75
2023/01/12 05:36:08;;;;;;;3.63;1.40;;;9.50;99.90;;;;;;5031593;28;20041;-77
2023/01/12 05:38:34;;;;;;;4.20;0.93;;;9.50;99.90;;;;;;5032624;28;20404;-76
2023/01/12 05:41:00;;;;;;;7.43;1.25;;;9.50;99.90;;;;;;5030676;28;20109;-75
2023/01/12 05:46:12;;;;;;;2.72;0.90;;;9.50;99.90;;;;;;5030431;28;20458;-76
2023/01/12 05:48:38;;;;;;;3.95;0.70;;;9.60;99.90;;;;;;5037097;28;20021;-76
2023/01/12 05:51:05;;;;;;;3.00;0.90;;;9.60;99.90;;;;;;5030888;28;20124;-75
2023/01/12 05:53:31;;;;;;;4.03;0.73;;;9.60;99.90;;;;;;5030479;28;20097;-76
2023/01/12 05:55:57;;;;;;;2.30;0.77;;;9.60;99.90;;;;;;5036220;28;20071;-75
2023/01/12 05:58:23;;;;;;;5.70;0.90;;;9.60;99.90;;;;;;5031010;28;20500;-75
2023/01/12 06:00:49;;;;;;;1.20;0.50;;;9.60;99.90;;;;;;5030304;28;20026;-76
2023/01/12 06:03:15;;;;;;;0.70;0.50;;;9.60;99.90;;;;;;5047415;28;20029;-76
2023/01/12 06:05:40;;;;;;;4.57;0.55;;;9.70;99.90;;;;;;5032426;28;20033;-76
2023/01/12 06:08:06;;;;;;;1.75;0.55;;;9.60;99.90;;;;;;5033561;28;20067;-75
2023/01/12 06:10:35;;;;;;;3.08;0.93;;;9.70;99.90;;;;;;5037885;28;20470;-76
2023/01/12 06:15:49;;;;;;;4.72;1.08;;;9.70;99.90;;;;;;5032435;28;20041;-75
2023/01/12 06:18:16;;;;;;;2.08;0.60;;;9.70;99.90;;;;;;5033947;28;20021;-74
2023/01/12 06:20:41;;;;;;;1.23;0.50;;;9.80;99.90;;;;;;5037865;28;20057;-74
2023/01/12 06:23:07;;;;;;;3.55;1.00;;;9.80;99.90;;;;;;5030735;28;20091;-75
2023/01/12 06:25:32;;;;;;;3.03;0.77;;;9.80;99.90;;;;;;5031655;28;20049;-74
2023/01/12 06:27:58;;;;;;;1.80;0.82;;;9.80;99.90;;;;;;5032077;28;20026;-74
2023/01/12 06:30:24;;;;;;;5.38;1.50;;;9.80;99.90;;;;;;5031475;28;20032;-74
2023/01/12 06:32:50;;;;;;;2.22;0.75;;;9.90;99.90;;;;;;5040469;28;20037;-74
2023/01/12 06:35:15;;;;;;;2.55;0.70;;;9.90;99.90;;;;;;5031487;28;22282;-75
2023/01/12 06:37:41;;;;;;;3.00;1.83;;;10.00;99.90;;;;;;5031769;28;20116;-75
2023/01/12 06:40:07;;;;;;;5.82;0.95;;;10.00;99.90;;;;;;5032490;28;20048;-76
2023/01/12 06:42:33;;;;;;;3.25;0.88;;;10.00;99.90;;;;;;5039556;28;20026;-75
2023/01/12 06:45:02;;;;;;;2.30;0.98;;;10.10;99.90;;;;;;5031820;28;20038;-75
2023/01/12 06:47:29;;;;;;;3.45;0.98;;;10.10;99.90;;;;;;5038611;28;20033;-74
2023/01/12 06:49:55;;;;;;;2.83;0.90;;;10.10;99.90;;;;;;5050132;28;20045;-75
2023/01/12 06:52:23;;;;;;;5.20;0.90;;;10.20;99.90;;;;;;5049229;28;20049;-76
2023/01/12 06:54:50;;;;;;;4.30;1.25;;;10.20;99.90;;;;;;5034526;28;20025;-75
2023/01/12 06:57:16;;;;;;;5.90;1.27;;;10.20;99.90;;;;;;5037385;28;20033;-74
2023/01/12 06:59:41;;;;;;;6.60;1.55;;;10.20;99.90;;;;;;5043822;28;20025;-74
2023/01/12 07:02:12;;;;;;;4.75;1.20;;;10.20;99.90;;;;;;5054171;28;20099;-74
2023/01/12 07:04:39;;;;;;;9.43;1.15;;;10.20;99.90;;;;;;5051544;28;20104;-74
2023/01/12 07:07:05;;;;;;;6.07;1.00;;;10.30;99.90;;;;;;5052199;28;20021;-74
2023/01/12 07:09:31;;;;;;;4.60;1.50;;;10.30;99.90;;;;;;5053296;28;20104;-74
2023/01/12 07:11:56;;;;;;;5.20;2.00;;;10.40;99.90;;;;;;5052966;28;20104;-73
2023/01/12 07:14:22;;;;;;;2.47;0.95;;;10.50;99.90;;;;;;5046084;28;20021;-74
2023/01/12 07:16:47;;;;;;;13.30;1.85;;;10.60;99.90;;;;;;5054732;28;20019;-75
2023/01/12 07:19:13;;;;;;;8.15;1.80;;;10.60;99.90;;;;;;5052888;28;20025;-75
2023/01/12 07:21:39;;;;;;;9.27;1.83;;;10.70;99.90;;;;;;5052349;28;20028;-74
2023/01/12 07:24:04;;;;;;;14.82;2.55;;;10.80;99.90;;;;;;5052469;28;20457;-76
2023/01/12 07:26:30;;;;;;;9.80;1.80;;;10.80;99.90;;;;;;5050418;28;20473;-76
2023/01/12 07:28:56;;;;;;;12.73;1.83;;;10.80;99.90;;;;;;5044160;28;20461;-75
2023/01/12 07:31:21;;;;;;;12.60;1.88;;;10.80;99.90;;;;;;5049860;28;20060;-76
2023/01/12 07:33:51;;;;;;;8.25;1.73;;;10.90;99.90;;;;;;5050095;28;20475;-74
2023/01/12 07:36:16;;;;;;;11.77;1.60;;;10.90;99.90;;;;;;5050474;28;20056;-76
2023/01/12 07:38:42;;;;;;;7.43;1.77;;;10.90;99.90;;;;;;5053991;28;20052;-75
2023/01/12 07:42:22;;;;;;;13.40;2.05;;;10.90;99.90;;;;;;5046487;28;20029;-76
2023/01/12 07:43:53;;;;;;;7.55;1.65;;;10.90;99.90;;;;;;5050374;28;20021;-75
2023/01/12 07:46:19;;;;;;;8.45;1.75;;;11.00;99.90;;;;;;5051038;28;20037;-74
2023/01/12 07:48:45;;;;;;;12.57;2.08;;;11.00;99.90;;;;;;5049711;28;20091;-76
2023/01/12 07:51:11;;;;;;;9.63;2.78;;;11.00;99.90;;;;;;5052353;28;20076;-75
2023/01/12 07:53:36;;;;;;;10.13;2.97;;;11.00;99.90;;;;;;5044502;28;20026;-76
2023/01/12 07:56:02;;;;;;;16.45;2.08;;;11.10;99.90;;;;;;5034630;28;20114;-75
2023/01/12 07:58:29;;;;;;;10.60;1.48;;;11.10;99.90;;;;;;5034881;28;20022;-76
2023/01/12 08:01:00;;;;;;;10.18;1.98;;;11.10;99.90;;;;;;5034237;28;20041;-76
2023/01/12 08:03:29;;;;;;;4.95;1.83;;;11.10;99.90;;;;;;5046068;28;20022;-75
2023/01/12 08:05:56;;;;;;;11.65;1.73;;;11.10;99.90;;;;;;5047340;28;20116;-77
2023/01/12 08:08:21;;;;;;;17.52;1.70;;;11.20;99.90;;;;;;5035093;28;20029;-76
2023/01/12 08:10:49;;;;;;;9.02;1.80;;;11.10;99.90;;;;;;5037516;28;20478;-76
2023/01/12 08:13:15;;;;;;;14.50;2.53;;;11.10;99.90;;;;;;5042220;28;20090;-77
2023/01/12 08:15:45;;;;;;;13.65;2.70;;;11.20;99.90;;;;;;5036295;28;20041;-76
2023/01/12 08:18:20;;;;;;;13.18;2.92;;;11.20;99.90;;;;;;5041017;28;20021;-75
2023/01/12 08:20:46;;;;;;;11.07;2.03;;;11.20;99.90;;;;;;5037064;28;20025;-79
2023/01/12 08:23:34;;;;;;;9.80;2.20;;;11.20;99.90;;;;;;5034172;28;20083;-77
2023/01/12 08:26:03;;;;;;;12.40;2.13;;;11.20;99.90;;;;;;5033774;28;20034;-75
2023/01/12 08:28:39;;;;;;;14.15;2.55;;;11.20;99.90;;;;;;5033377;28;20033;-75
2023/01/12 08:31:08;;;;;;;9.45;2.58;;;11.10;99.90;;;;;;5045334;28;20128;-75
2023/01/12 08:33:36;;;;;;;7.82;1.77;;;11.20;99.90;;;;;;5038930;28;20041;-75
2023/01/12 08:36:03;;;;;;;10.73;2.22;;;11.20;99.90;;;;;;5037540;28;20030;-75
2023/01/12 08:38:29;;;;;;;16.13;2.25;;;11.10;99.90;;;;;;5040402;28;20033;-75
2023/01/12 08:46:26;;;;;;;12.57;3.25;;;11.10;99.90;;;;;;5045443;28;20078;-75
2023/01/12 08:48:52;;;;;;;15.40;2.47;;;11.10;99.90;;;;;;5053039;28;20025;-73
2023/01/12 08:51:18;;;;;;;10.25;2.90;;;11.10;99.90;;;;;;5053152;28;20492;-74
2023/01/12 08:53:44;;;;;;;19.23;3.35;;;11.10;99.90;;;;;;5053406;28;20052;-74
2023/01/12 08:56:15;;;;;;;20.90;3.55;;;11.20;99.90;;;;;;5052678;28;20334;-74
2023/01/12 08:58:44;;;;;;;14.55;2.60;;;11.10;99.90;;;;;;5040740;28;20025;-73
2023/01/12 09:01:12;;;;;;;15.40;2.83;;;11.10;99.90;;;;;;5053232;28;20029;-75
2023/01/12 09:03:39;;;;;;;18.13;2.75;;;11.10;99.90;;;;;;5052618;28;20025;-74
2023/01/12 09:06:12;;;;;;;23.77;5.25;;;11.10;99.90;;;;;;5053154;28;20043;-75
2023/01/12 09:08:38;;;;;;;19.67;3.55;;;11.20;99.90;;;;;;5053424;28;20596;-75
2023/01/12 09:11:04;;;;;;;27.73;3.47;;;11.10;99.90;;;;;;5052213;28;20111;-74
2023/01/12 09:13:32;;;;;;;32.42;5.47;;;11.20;99.90;;;;;;5052783;28;21225;-74
2023/01/12 09:16:06;;;;;;;21.65;4.63;;;11.30;99.90;;;;;;5043448;28;20026;-75
2023/01/12 09:18:32;;;;;;;18.77;3.45;;;11.20;99.90;;;;;;5048588;28;20104;-75
2023/01/12 09:21:12;;;;;;;13.65;2.95;;;11.30;99.90;;;;;;5053398;28;20052;-74
2023/01/12 09:23:38;;;;;;;29.30;4.07;;;11.30;99.90;;;;;;5053403;28;20053;-74
2023/01/12 09:26:09;;;;;;;24.45;3.70;;;11.30;99.90;;;;;;5042363;28;20551;-74
2023/01/12 09:28:36;;;;;;;22.23;4.05;;;11.30;99.90;;;;;;5033021;28;20026;-73
2023/01/12 09:31:07;;;;;;;30.83;5.18;;;11.30;99.90;;;;;;5035519;28;20525;-73
2023/01/12 09:33:34;;;;;;;28.45;4.90;;;11.30;99.90;;;;;;5035877;28;20028;-73
2023/01/12 09:36:02;;;;;;;23.15;4.60;;;11.30;99.90;;;;;;5032030;28;20033;-73
2023/01/12 09:38:28;;;;;;;21.85;3.65;;;11.30;99.90;;;;;;5031798;28;20392;-74
2023/01/12 09:40:55;;;;;;;12.88;3.47;;;11.40;99.90;;;;;;5034681;28;20116;-73
2023/01/12 09:49:00;;;;;;;15.52;2.83;;;11.40;99.90;;;;;;5032572;28;20592;-73
2023/01/12 09:51:35;;;;;;;11.13;3.28;;;11.40;99.90;;;;;;5044745;28;20025;-74
2023/01/12 09:54:03;;;;;;;11.65;2.20;;;11.30;99.90;;;;;;5031741;28;20047;-74
2023/01/12 09:56:37;;;;;;;17.10;2.55;;;11.30;99.90;;;;;;5038719;28;20362;-74
2023/01/12 09:59:32;;;;;;;21.17;4.22;;;11.40;99.90;;;;;;5032363;28;20018;-74
2023/01/12 10:01:58;;;;;;;16.63;2.60;;;11.40;99.90;;;;;;5032241;28;20022;-75
2023/01/12 10:04:24;;;;;;;15.07;3.53;;;11.30;99.90;;;;;;5032226;28;20036;-75
2023/01/12 10:06:50;;;;;;;16.23;2.95;;;11.30;99.90;;;;;;5042416;28;20041;-74
2023/01/12 10:09:21;;;;;;;11.90;2.95;;;11.30;99.90;;;;;;5033969;28;20378;-75
2023/01/12 10:11:47;;;;;;;23.83;5.22;;;11.70;99.90;;;;;;5032542;28;20448;-74
2023/01/12 10:14:30;;;;;;;30.45;4.03;;;11.30;99.90;;;;;;5039307;28;20032;-73
2023/01/12 10:17:24;;;;;;;13.93;2.83;;;11.30;99.90;;;;;;5035658;28;20103;-74
2023/01/12 10:20:02;;;;;;;15.40;3.33;;;11.40;99.90;;;;;;5039549;28;20030;-74
2023/01/12 10:22:37;;;;;;;20.23;4.18;;;11.40;99.90;;;;;;5032048;28;20108;-74
2023/01/12 10:25:39;;;;;;;10.98;2.28;;;11.50;99.90;;;;;;5032670;28;20052;-74
2023/01/12 10:28:34;;;;;;;11.35;3.13;;;11.40;99.90;;;;;;5043622;28;20108;-74
2023/01/12 10:31:00;;;;;;;15.15;2.40;;;11.40;99.90;;;;;;5030910;28;20042;-75
2023/01/12 10:33:35;;;;;;;14.18;2.42;;;11.40;99.90;;;;;;5035028;28;20044;-73
2023/01/12 10:36:09;;;;;;;15.82;2.55;;;11.40;99.90;;;;;;5036346;28;20030;-74
2023/01/12 10:39:02;;;;;;;8.50;2.10;;;11.40;99.90;;;;;;5031976;28;20029;-74
2023/01/12 10:41:28;;;;;;;17.08;3.58;;;11.40;99.90;;;;;;5031002;28;20490;-76
2023/01/12 10:43:53;;;;;;;17.45;3.90;;;11.40;99.90;;;;;;5031506;28;20082;-75
2023/01/12 10:46:22;;;;;;;25.42;3.97;;;11.40;99.90;;;;;;5042959;28;20552;-76
2023/01/12 10:48:49;;;;;;;15.45;2.30;;;11.40;99.90;;;;;;5051180;28;20376;-75
2023/01/12 10:51:34;;;;;;;14.38;3.10;;;11.40;99.90;;;;;;5051896;28;20029;-75
2023/01/12 10:54:18;;;;;;;12.25;2.67;;;11.40;99.90;;;;;;5051477;28;20481;-79
2023/01/12 10:56:59;;;;;;;13.05;2.53;;;11.40;99.90;;;;;;5051225;28;20060;-75
2023/01/12 10:59:28;;;;;;;18.50;4.40;;;11.40;99.90;;;;;;5046912;28;20033;-75
2023/01/12 11:02:06;;;;;;;10.70;2.78;;;11.50;99.90;;;;;;5037733;28;20017;-75
2023/01/12 11:04:46;;;;;;;14.57;3.13;;;11.40;99.90;;;;;;5030369;28;20026;-74
2023/01/12 11:07:13;;;;;;;7.72;1.63;;;11.50;99.90;;;;;;5030785;28;20037;-75
2023/01/12 11:09:41;;;;;;;18.88;3.17;;;11.50;99.90;;;;;;5036246;28;20022;-73
2023/01/12 11:12:34;;;;;;;9.18;2.33;;;11.50;99.90;;;;;;5031420;28;20105;-74
2023/01/12 11:15:17;;;;;;;7.65;2.22;;;11.50;99.90;;;;;;5038943;28;20029;-75
2023/01/12 11:18:02;;;;;;;9.93;3.03;;;11.50;99.90;;;;;;5051125;28;20104;-75
2023/01/12 11:21:01;;;;;;;22.75;3.30;;;11.40;99.90;;;;;;5051272;28;20052;-75
2023/01/12 11:23:42;;;;;;;11.95;2.78;;;11.50;99.90;;;;;;5047172;28;20036;-75
2023/01/12 11:26:22;;;;;;;9.90;3.08;;;11.50;99.90;;;;;;5040909;28;20171;-75
2023/01/12 11:28:53;;;;;;;14.60;2.33;;;11.50;99.90;;;;;;5031808;28;20022;-76
2023/01/12 11:31:24;;;;;;;13.35;2.17;;;11.50;99.90;;;;;;5031539;28;20073;-75
2023/01/12 11:34:10;;;;;;;12.73;3.25;;;11.40;99.90;;;;;;5031219;28;20025;-75
2023/01/12 11:36:41;;;;;;;11.90;2.38;;;11.40;99.90;;;;;;5031819;28;20035;-76
2023/01/12 11:39:11;;;;;;;;;;;11.40;99.90;;;;;;5034253;28;20477;-76
2023/01/12 11:45:01;;;;;;;9.90;1.80;;;11.40;99.90;;;;;;5036705;28;20045;-76
2023/01/12 11:47:34;;;;;;;12.60;2.03;;;11.40;99.90;;;;;;5041442;28;20045;-76
2023/01/12 11:50:24;;;;;;;12.32;2.28;;;11.40;99.90;;;;;;5048636;28;20033;-74
2023/01/12 11:52:52;;;;;;;18.63;3.17;;;11.40;99.90;;;;;;5033212;28;20836;-76
2023/01/12 11:55:31;;;;;;;12.32;2.95;;;11.40;99.90;;;;;;5033981;28;20041;-76
2023/01/12 11:58:11;;;;;;;14.52;2.17;;;11.40;99.90;;;;;;5037536;28;20024;-74
2023/01/12 12:00:59;;;;;;;19.77;2.95;;;11.40;99.90;;;;;;5034186;28;20030;-75
2023/01/12 12:03:50;;;;;;;18.27;4.05;;;11.40;99.90;;;;;;5035129;28;20045;-75
2023/01/12 12:06:20;;;;;;;13.30;2.67;;;11.40;99.90;;;;;;5033565;28;20060;-75
2023/01/12 12:08:56;;;;;;;13.93;1.88;;;11.40;99.90;;;;;;5035527;28;20100;-75
2023/01/12 12:12:00;;;;;;;13.45;1.83;;;11.40;99.90;;;;;;5036904;28;20025;-75
2023/01/12 12:14:47;;;;;;;15.25;2.63;;;11.40;99.90;;;;;;5036990;28;20030;-76
2023/01/12 12:17:37;;;;;;;9.98;2.20;;;11.40;99.90;;;;;;5036501;28;20021;-75
2023/01/12 12:20:20;;;;;;;8.10;1.70;;;11.40;99.90;;;;;;5033636;28;20185;-75
2023/01/12 12:23:00;;;;;;;11.55;2.50;;;11.40;99.90;;;;;;5034426;28;20416;-76
2023/01/12 12:25:53;;;;;;;8.70;1.80;;;11.40;99.90;;;;;;5034911;28;20037;-75
2023/01/12 12:28:45;;;;;;;8.48;1.80;;;11.40;99.90;;;;;;5034578;28;20025;-76
2023/01/12 12:31:30;;;;;;;3.67;1.70;;;11.40;99.90;;;;;;5034049;28;20041;-75
2023/01/12 12:34:01;;;;;;;2.75;1.42;;;11.40;99.90;;;;;;5033327;28;20029;-76
2023/01/12 12:37:11;;;;;;;4.10;1.00;;;11.40;99.90;;;;;;5034789;28;20032;-75
2023/01/12 12:39:59;;;;;;;2.33;1.10;;;11.40;99.90;;;;;;5030136;28;20057;-76
2023/01/12 12:45:49;;;;;;;0.73;0.70;;;11.40;99.90;;;;;;5051879;28;20048;-75
2023/01/12 12:48:20;;;;;;;1.30;0.80;;;11.40;99.90;;;;;;5053024;28;20260;-76
2023/01/12 12:50:48;;;;;;;0.90;0.70;;;11.40;99.90;;;;;;5053495;28;20032;-75
2023/01/12 12:53:36;;;;;;;2.50;1.05;;;11.30;99.90;;;;;;5053045;28;20372;-74
2023/01/12 12:56:08;;;;;;;1.92;1.13;;;11.30;99.90;;;;;;5039738;28;20021;-75
2023/01/12 12:58:49;;;;;;;0.90;0.80;;;11.30;99.90;;;;;;5053539;28;20029;-75
2023/01/12 13:01:25;;;;;;;2.80;0.80;;;11.30;99.90;;;;;;5041889;28;20077;-75
2023/01/12 13:03:53;;;;;;;2.13;1.10;;;11.30;99.90;;;;;;5052464;28;20442;-74
2023/01/12 13:06:30;;;;;;;1.58;0.88;;;11.30;99.90;;;;;;5052179;28;20037;-76
2023/01/12 13:09:15;;;;;;;2.50;1.08;;;11.30;99.90;;;;;;5045038;28;20044;-75
2023/01/12 13:12:08;;;;;;;2.63;0.77;;;11.30;99.90;;;;;;5042746;28;20025;-74
2023/01/12 13:14:35;;;;;;;2.83;1.33;;;11.30;99.90;;;;;;5033358;28;20108;-74
2023/01/12 13:17:18;;;;;;;2.80;1.10;;;11.30;99.90;;;;;;5032394;28;20034;-74
2023/01/12 13:19:46;;;;;;;3.13;1.17;;;11.30;99.90;;;;;;5033097;28;20083;-74
2023/01/12 13:22:39;;;;;;;2.17;1.02;;;11.30;99.90;;;;;;5032993;28;20022;-73
2023/01/12 13:25:19;;;;;;;3.65;1.80;;;11.30;99.90;;;;;;5031941;28;20478;-75
2023/01/12 13:28:02;;;;;;;1.88;1.42;;;11.30;99.90;;;;;;5032906;28;20032;-74
2023/01/12 13:30:28;;;;;;;2.35;1.25;;;11.30;99.90;;;;;;5032130;28;20061;-73
2023/01/12 13:33:22;;;;;;;3.03;1.17;;;11.20;99.90;;;;;;5032890;28;20057;-75
2023/01/12 13:35:47;;;;;;;7.45;1.55;;;11.20;99.90;;;;;;5033293;28;20035;-73
2023/01/12 13:38:22;;;;;;;2.78;1.40;;;11.30;99.90;;;;;;5035277;28;20104;-74
2023/01/12 13:40:48;;;;;;;3.20;1.20;;;11.20;99.90;;;;;;5032914;28;20028;-74
2023/01/12 13:43:25;;;;;;;3.75;1.33;;;11.20;99.90;;;;;;5032462;28;20510;-74
2023/01/12 13:45:55;;;;;;;4.65;1.48;;;11.20;99.90;;;;;;5039276;28;20041;-73
2023/01/12 13:48:22;;;;;;;1.52;1.05;;;11.20;99.90;;;;;;5052827;28;20025;-74
2023/01/12 13:50:52;;;;;;;4.63;1.48;;;11.20;99.90;;;;;;5052394;28;20084;-74
2023/01/12 13:53:24;;;;;;;2.45;1.15;;;11.20;99.90;;;;;;5051681;28;20079;-74